createdAt,value
2019-06-08T04:00:57.466Z,45.00
2019-06-08T04:01:57.630Z,39.38
2019-06-08T04:02:57.804Z,39.38
2019-06-08T04:04:00.027Z,39.38
2019-06-08T04:04:58.150Z,39.38
2019-06-08T04:05:58.319Z,39.38
2019-06-08T04:06:58.496Z,45.00
2019-06-08T04:07:58.674Z,45.00
2019-06-08T04:08:58.882Z,39.38
2019-06-08T04:09:59.020Z,39.38
2019-06-08T04:10:59.198Z,45.00
2019-06-08T04:11:59.386Z,56.25
2019-06-08T04:12:59.547Z,67.50
2019-06-08T04:13:59.737Z,73.13
2019-06-08T04:14:59.895Z,78.75
2019-06-08T04:16:00.068Z,84.38
2019-06-08T04:17:00.260Z,90.00
2019-06-08T04:18:00.427Z,95.63
2019-06-08T04:19:00.878Z,106.88
2019-06-08T04:20:10.303Z,118.13
2019-06-08T04:21:00.989Z,118.13
2019-06-08T04:22:01.170Z,101.25
2019-06-08T04:23:01.334Z,84.38
2019-06-08T04:24:01.506Z,84.38
2019-06-08T04:25:01.701Z,90.00
2019-06-08T04:26:01.851Z,90.00
2019-06-08T04:27:02.027Z,95.63
2019-06-08T04:28:02.198Z,101.25
2019-06-08T04:29:02.368Z,106.88
2019-06-08T04:30:02.538Z,112.50
2019-06-08T04:31:02.713Z,118.13
2019-06-08T04:32:02.905Z,129.38
2019-06-08T04:33:03.060Z,140.63
2019-06-08T04:34:03.237Z,151.88
2019-06-08T04:35:03.410Z,151.88
2019-06-08T04:36:03.599Z,151.88
2019-06-08T04:37:03.765Z,140.63
2019-06-08T04:38:03.934Z,135.00
2019-06-08T04:39:04.107Z,129.38
2019-06-08T04:40:04.283Z,129.38
2019-06-08T04:41:04.451Z,135.00
2019-06-08T04:42:04.627Z,140.63
2019-06-08T04:43:04.802Z,151.88
2019-06-08T04:44:04.969Z,157.50
2019-06-08T04:45:05.146Z,163.13
2019-06-08T04:46:05.316Z,168.75
2019-06-08T04:47:05.494Z,174.38
2019-06-08T04:48:09.535Z,174.38
2019-06-08T04:49:05.849Z,174.38
2019-06-08T04:50:21.942Z,180.00
2019-06-08T04:51:06.210Z,191.25
2019-06-08T04:52:06.378Z,196.88
2019-06-08T04:53:06.539Z,202.50
2019-06-08T04:54:06.711Z,213.75
2019-06-08T04:55:06.886Z,219.38
2019-06-08T04:56:07.060Z,219.38
2019-06-08T04:57:07.231Z,219.38
2019-06-08T04:58:07.405Z,236.25
2019-06-08T04:59:07.581Z,247.50
2019-06-08T05:00:12.034Z,241.88
2019-06-08T05:01:07.928Z,225.00
2019-06-08T05:02:08.104Z,213.75
2019-06-08T05:03:08.271Z,202.50
2019-06-08T05:04:08.436Z,213.75
2019-06-08T05:05:08.605Z,230.63
2019-06-08T05:06:08.798Z,241.88
2019-06-08T05:07:08.955Z,253.13
2019-06-08T05:08:09.130Z,253.13
2019-06-08T05:09:09.309Z,270.00
2019-06-08T05:10:09.476Z,275.63
2019-06-08T05:11:09.654Z,275.63
2019-06-08T05:12:09.824Z,275.63
2019-06-08T05:13:10.001Z,270.00
2019-06-08T05:14:10.172Z,275.63
2019-06-08T05:15:10.348Z,258.75
2019-06-08T05:16:10.518Z,253.13
2019-06-08T05:17:10.687Z,230.63
2019-06-08T05:18:10.861Z,225.00
2019-06-08T05:19:11.035Z,225.00
2019-06-08T05:20:11.208Z,270.00
2019-06-08T05:21:11.382Z,275.63
2019-06-08T05:22:11.553Z,286.88
2019-06-08T05:23:11.727Z,309.38
2019-06-08T05:24:11.903Z,264.38
2019-06-08T05:25:12.073Z,258.75
2019-06-08T05:26:12.244Z,191.25
2019-06-08T05:27:12.418Z,163.13
2019-06-08T05:28:12.587Z,191.25
2019-06-08T05:29:12.762Z,174.38
2019-06-08T05:30:12.940Z,196.88
2019-06-08T05:31:13.114Z,225.00
2019-06-08T05:32:13.285Z,241.88
2019-06-08T05:33:13.456Z,247.50
2019-06-08T05:34:13.631Z,230.63
2019-06-08T05:35:13.802Z,213.75
2019-06-08T05:36:13.979Z,213.75
2019-06-08T05:37:14.166Z,230.63
2019-06-08T05:38:14.323Z,219.38
2019-06-08T05:39:14.488Z,219.38
2019-06-08T05:40:14.666Z,208.13
2019-06-08T05:41:14.838Z,219.38
2019-06-08T05:42:15.011Z,241.88
2019-06-08T05:43:15.182Z,213.75
2019-06-08T05:44:15.354Z,275.63
2019-06-08T05:45:15.532Z,258.75
2019-06-08T05:46:15.707Z,275.63
2019-06-08T05:47:15.881Z,326.25
2019-06-08T05:48:16.047Z,275.63
2019-06-08T05:49:16.220Z,196.88
2019-06-08T05:50:16.391Z,191.25
2019-06-08T05:51:16.579Z,236.25
2019-06-08T05:52:16.740Z,202.50
2019-06-08T05:53:16.912Z,253.13
2019-06-08T05:54:17.088Z,286.88
2019-06-08T05:55:17.254Z,309.38
2019-06-08T05:56:17.430Z,427.50
2019-06-08T05:57:17.604Z,421.88
2019-06-08T05:58:17.783Z,405.00
2019-06-08T05:59:17.946Z,416.25
2019-06-08T06:00:18.115Z,393.75
2019-06-08T06:01:18.322Z,444.38
2019-06-08T06:02:18.487Z,455.63
2019-06-08T06:03:18.651Z,438.75
2019-06-08T06:04:18.839Z,399.38
2019-06-08T06:05:18.985Z,376.88
2019-06-08T06:06:19.158Z,337.50
2019-06-08T06:07:19.343Z,309.38
2019-06-08T06:08:19.583Z,303.75
2019-06-08T06:09:19.685Z,225.00
2019-06-08T06:10:19.878Z,320.63
2019-06-08T06:11:20.031Z,320.63
2019-06-08T06:12:20.198Z,309.38
2019-06-08T06:13:20.362Z,315.00
2019-06-08T06:14:20.521Z,320.63
2019-06-08T06:15:20.665Z,337.50
2019-06-08T06:16:20.833Z,371.25
2019-06-08T06:17:21.038Z,399.38
2019-06-08T06:18:21.217Z,421.88
2019-06-08T06:19:21.360Z,348.75
2019-06-08T06:20:21.521Z,410.63
2019-06-08T06:21:21.714Z,466.88
2019-06-08T06:22:21.873Z,438.75
2019-06-08T06:23:22.035Z,286.88
2019-06-08T06:24:22.219Z,393.75
2019-06-08T06:25:22.444Z,405.00
2019-06-08T06:26:22.598Z,416.25
2019-06-08T06:29:54.484Z,478.13
2019-06-08T06:30:54.661Z,393.75
2019-06-08T06:31:54.874Z,241.88
2019-06-08T06:32:55.095Z,247.50
2019-06-08T06:33:55.162Z,382.50
2019-06-08T06:34:55.329Z,371.25
2019-06-08T06:35:55.505Z,343.13
2019-06-08T06:36:57.455Z,225.00
2019-06-08T06:37:55.855Z,326.25
2019-06-08T06:38:56.026Z,331.88
2019-06-08T06:39:56.202Z,331.88
2019-06-08T06:40:56.374Z,337.50
2019-06-08T06:41:56.548Z,337.50
2019-06-08T06:42:56.719Z,320.63
2019-06-08T06:43:56.895Z,337.50
2019-06-08T06:44:57.071Z,331.88
2019-06-08T06:45:57.240Z,337.50
2019-06-08T06:46:57.412Z,331.88
2019-06-08T06:47:57.599Z,331.88
2019-06-08T06:48:57.760Z,337.50
2019-06-08T06:49:57.938Z,337.50
2019-06-08T06:50:58.102Z,343.13
2019-06-08T06:51:58.272Z,360.00
2019-06-08T06:52:58.449Z,382.50
2019-06-08T06:53:58.620Z,421.88
2019-06-08T06:54:58.789Z,410.63
2019-06-08T06:55:58.962Z,303.75
2019-06-08T06:56:59.137Z,450.00
2019-06-08T06:57:59.307Z,337.50
2019-06-08T06:58:59.480Z,326.25
2019-06-08T06:59:59.654Z,416.25
2019-06-08T07:00:59.831Z,466.88
2019-06-08T07:02:00.000Z,455.63
2019-06-08T07:03:00.174Z,388.13
2019-06-08T07:04:00.364Z,399.38
2019-06-08T07:05:00.525Z,399.38
2019-06-08T07:06:00.699Z,399.38
2019-06-08T07:07:00.879Z,427.50
2019-06-08T07:08:01.050Z,444.38
2019-06-08T07:09:01.221Z,489.38
2019-06-08T07:10:01.394Z,472.50
2019-06-08T07:11:01.564Z,427.50
2019-06-08T07:12:01.826Z,393.75
2019-06-08T07:13:01.939Z,399.38
2019-06-08T07:14:02.089Z,405.00
2019-06-08T07:15:02.268Z,421.88
2019-06-08T07:16:17.358Z,421.88
2019-06-08T07:17:02.611Z,421.88
2019-06-08T07:18:02.779Z,444.38
2019-06-08T07:19:02.966Z,483.75
2019-06-08T07:20:03.128Z,472.50
2019-06-08T07:21:03.296Z,489.38
2019-06-08T07:22:03.469Z,534.38
2019-06-08T07:23:03.623Z,573.75
2019-06-08T07:24:03.792Z,635.63
2019-06-08T07:25:03.956Z,635.63
2019-06-08T07:26:04.121Z,528.75
2019-06-08T07:27:07.378Z,624.38
2019-06-08T07:28:04.449Z,579.38
2019-06-08T07:29:04.614Z,540.00
2019-06-08T07:30:04.802Z,562.50
2019-06-08T07:31:04.947Z,568.13
2019-06-08T07:32:05.105Z,635.63
2019-06-08T07:33:05.301Z,540.00
2019-06-08T07:34:05.436Z,601.88
2019-06-08T07:35:05.646Z,556.88
2019-06-08T07:36:05.776Z,506.25
2019-06-08T07:37:05.939Z,506.25
2019-06-08T07:38:06.132Z,495.00
2019-06-08T07:39:06.272Z,534.38
2019-06-08T07:40:06.443Z,495.00
2019-06-08T07:41:06.619Z,506.25
2019-06-08T07:42:06.785Z,495.00
2019-06-08T07:43:06.959Z,511.88
2019-06-08T07:44:07.135Z,551.25
2019-06-08T07:45:07.304Z,669.38
2019-06-08T07:46:07.476Z,528.75
2019-06-08T07:47:07.649Z,450.00
2019-06-08T07:48:07.827Z,399.38
2019-06-08T07:49:07.989Z,540.00
2019-06-08T07:50:08.150Z,568.13
2019-06-08T07:51:08.327Z,596.25
2019-06-08T07:52:10.755Z,635.63
2019-06-08T07:53:08.654Z,669.38
2019-06-08T07:54:08.810Z,635.63
2019-06-08T07:55:08.958Z,579.38
2019-06-08T07:56:09.146Z,573.75
2019-06-08T07:57:09.306Z,562.50
2019-06-08T07:58:09.462Z,568.13
2019-06-08T07:59:09.628Z,416.25
2019-06-08T08:00:09.920Z,376.88
2019-06-08T08:01:09.956Z,511.88
2019-06-08T08:02:10.118Z,433.13
2019-06-08T08:03:10.280Z,534.38
2019-06-08T08:04:10.442Z,562.50
2019-06-08T08:05:10.618Z,601.88
2019-06-08T08:06:10.790Z,478.13
2019-06-08T08:07:10.952Z,590.63
2019-06-08T08:08:11.111Z,658.13
2019-06-08T08:09:11.299Z,534.38
2019-06-08T08:10:11.474Z,618.75
2019-06-08T08:11:11.624Z,556.88
2019-06-08T08:12:12.451Z,545.63
2019-06-08T11:42:13.087Z,1591.88
2019-06-08T11:43:11.923Z,888.75
2019-06-08T11:44:14.769Z,838.13
2019-06-08T11:45:13.062Z,939.38
2019-06-08T11:48:04.703Z,753.75
2019-06-08T11:49:05.959Z,804.38
2019-06-08T11:50:04.763Z,793.13
2019-06-08T11:51:04.767Z,770.63
2019-06-08T11:52:04.839Z,720.00
2019-06-08T11:53:05.582Z,736.88
2019-06-08T11:54:24.448Z,607.50
2019-06-08T11:55:05.803Z,551.25
2019-06-08T11:56:07.231Z,562.50
2019-06-08T11:57:08.397Z,669.38
2019-06-08T11:58:07.546Z,669.38
2019-06-08T11:59:07.204Z,635.63
2019-06-08T12:00:16.678Z,708.75
2019-06-08T12:01:10.039Z,787.50
2019-06-08T12:02:10.760Z,798.75
2019-06-08T12:03:08.845Z,759.38
2019-06-08T12:04:07.844Z,630.00
2019-06-08T12:05:10.530Z,534.38
2019-06-08T12:06:09.484Z,528.75
2019-06-08T12:07:09.527Z,506.25
2019-06-08T12:08:08.443Z,540.00
2019-06-08T12:09:10.448Z,613.13
2019-06-08T12:10:10.558Z,686.25
2019-06-08T12:11:11.553Z,759.38
2019-06-08T12:12:12.312Z,860.63
2019-06-08T12:13:09.779Z,928.13
2019-06-08T12:14:10.816Z,905.63
2019-06-08T12:15:11.562Z,725.63
2019-06-08T12:16:15.030Z,630.00
2019-06-08T12:17:13.459Z,646.88
2019-06-08T12:18:10.973Z,686.25
2019-06-08T12:19:13.429Z,736.88
2019-06-08T12:20:14.069Z,826.88
2019-06-08T12:21:11.324Z,928.13
2019-06-08T12:22:11.662Z,1085.63
2019-06-08T12:23:10.234Z,1209.38
2019-06-08T12:24:10.479Z,1501.88
2019-06-08T12:25:10.591Z,2565.00
2019-06-08T12:26:10.766Z,1726.88
2019-06-08T12:27:23.729Z,1535.63
2019-06-08T12:28:11.123Z,1220.63
2019-06-08T12:29:12.859Z,1164.38
2019-06-08T12:30:19.363Z,4230.00
2019-06-08T12:31:16.825Z,1890.00
2019-06-08T12:32:12.762Z,3425.63
2019-06-08T12:33:12.707Z,4460.63
2019-06-08T12:34:13.411Z,4505.63
2019-06-08T12:35:12.754Z,4606.88
2019-06-08T12:36:15.596Z,4365.00
2019-06-08T12:37:17.222Z,1226.25
2019-06-08T12:38:14.173Z,1406.25
2019-06-08T12:39:14.192Z,961.88
2019-06-08T12:40:14.771Z,815.63
2019-06-08T12:41:14.050Z,697.50
2019-06-08T12:42:19.598Z,1580.63
2019-06-08T12:43:14.652Z,4387.50
2019-06-08T12:44:16.399Z,4218.75
2019-06-08T12:45:15.159Z,1018.13
2019-06-08T12:46:15.138Z,978.75
2019-06-08T12:47:17.655Z,4291.88
2019-06-08T12:48:18.399Z,4196.25
2019-06-08T12:49:16.465Z,4218.75
2019-06-08T12:50:16.280Z,4376.25
2019-06-08T12:51:16.450Z,3054.38
2019-06-08T12:52:16.751Z,1395.00
2019-06-08T12:53:20.168Z,4477.50
2019-06-08T12:54:16.895Z,4505.63
2019-06-08T12:55:19.994Z,4730.63
2019-06-08T12:56:18.836Z,4089.38
2019-06-08T12:57:17.590Z,2632.50
2019-06-08T12:58:19.491Z,1136.25
2019-06-08T12:59:21.042Z,4680.00
2019-06-08T13:00:19.324Z,1530.00
2019-06-08T13:01:16.933Z,1524.38
2019-06-08T13:02:22.040Z,3290.63
2019-06-08T13:03:18.407Z,1164.38
2019-06-08T13:04:21.342Z,945.00
2019-06-08T13:05:21.527Z,849.38
2019-06-08T13:06:18.272Z,1006.88
2019-06-08T13:07:19.006Z,1181.25
2019-06-08T13:08:21.503Z,1158.75
2019-06-08T13:09:19.365Z,1305.00
2019-06-08T13:10:23.487Z,4224.38
2019-06-08T13:11:19.143Z,804.38
2019-06-08T13:12:21.270Z,1411.88
2019-06-08T13:13:24.014Z,978.75
2019-06-08T13:14:20.658Z,1035.00
2019-06-08T13:15:21.694Z,3470.63
2019-06-08T13:16:23.770Z,4162.50
2019-06-08T13:17:21.242Z,4696.88
2019-06-08T13:18:21.448Z,4713.75
2019-06-08T13:19:20.128Z,3875.63
2019-06-08T13:20:22.088Z,4803.75
2019-06-08T13:21:31.611Z,4702.50
2019-06-08T13:22:28.006Z,4657.50
2019-06-08T13:23:21.364Z,1237.50
2019-06-08T13:24:21.009Z,1108.13
2019-06-08T13:25:36.193Z,1063.13
2019-06-08T13:26:27.479Z,838.13
2019-06-08T13:27:23.163Z,939.38
2019-06-08T13:28:25.052Z,1220.63
2019-06-08T13:29:22.305Z,3341.25
2019-06-08T13:30:25.916Z,1237.50
2019-06-08T13:31:24.618Z,2857.50
2019-06-08T13:32:22.433Z,1203.75
2019-06-08T13:33:22.605Z,1001.25
2019-06-08T13:34:24.322Z,961.88
2019-06-08T13:35:22.959Z,967.50
2019-06-08T13:36:26.472Z,990.00
2019-06-08T13:37:23.312Z,3363.75
2019-06-08T13:38:23.490Z,978.75
2019-06-08T13:39:23.671Z,765.00
2019-06-08T13:40:23.846Z,832.50
2019-06-08T13:41:26.382Z,753.75
2019-06-08T13:42:24.223Z,933.75
2019-06-08T13:43:24.398Z,2998.13
2019-06-08T13:44:24.577Z,1440.00
2019-06-08T13:45:24.752Z,1434.38
2019-06-08T13:46:24.930Z,911.25
2019-06-08T13:47:25.106Z,804.38
2019-06-08T13:48:25.284Z,1012.50
2019-06-08T13:49:29.720Z,759.38
2019-06-08T13:50:25.638Z,1833.75
2019-06-08T13:51:28.025Z,4134.38
2019-06-08T13:52:28.167Z,4078.13
2019-06-08T13:53:31.062Z,4185.00
2019-06-08T13:54:28.537Z,4320.00
2019-06-08T13:55:42.631Z,4522.50
2019-06-08T13:56:28.450Z,1310.63
2019-06-08T13:57:26.858Z,1411.88
2019-06-08T13:58:33.045Z,1884.38
2019-06-08T13:59:30.341Z,1254.38
2019-06-08T14:00:27.414Z,990.00
2019-06-08T14:01:30.795Z,967.50
2019-06-08T14:02:30.952Z,1276.88
2019-06-08T14:03:27.964Z,961.88
2019-06-08T14:04:28.123Z,922.50
2019-06-08T14:05:30.696Z,990.00
2019-06-08T14:06:28.618Z,1018.13
2019-06-08T14:07:34.424Z,1158.75
2019-06-08T14:08:32.927Z,1158.75
2019-06-08T14:09:31.428Z,1006.88
2019-06-08T14:10:29.267Z,4196.25
2019-06-08T14:11:29.443Z,1963.13
2019-06-08T14:12:30.890Z,1147.50
2019-06-08T14:13:34.296Z,4196.25
2019-06-08T14:14:33.412Z,961.88
2019-06-08T14:15:30.125Z,1625.63
2019-06-08T14:16:30.346Z,4173.75
2019-06-08T14:17:30.471Z,2171.25
2019-06-08T14:18:34.072Z,883.13
2019-06-08T14:19:31.796Z,866.25
2019-06-08T14:20:34.324Z,4033.13
2019-06-08T14:21:40.959Z,3431.25
2019-06-08T14:22:31.402Z,1321.88
2019-06-08T14:23:31.586Z,2784.38
2019-06-08T14:24:34.498Z,2064.38
2019-06-08T14:25:47.067Z,2002.50
2019-06-08T14:26:32.111Z,2660.63
2019-06-08T14:27:33.485Z,1136.25
2019-06-08T14:28:32.464Z,1215.00
2019-06-08T14:29:32.640Z,1243.13
2019-06-08T14:30:33.264Z,1040.63
2019-06-08T14:31:32.998Z,3127.50
2019-06-08T14:32:33.176Z,3920.63
2019-06-08T14:33:33.827Z,3909.38
2019-06-08T14:34:33.529Z,3982.50
2019-06-08T14:35:33.705Z,4201.88
2019-06-08T14:36:33.882Z,1462.50
2019-06-08T14:37:34.060Z,838.13
2019-06-08T14:38:38.480Z,877.50
2019-06-08T14:39:34.414Z,821.25
2019-06-08T14:40:34.624Z,888.75
2019-06-08T14:41:34.807Z,736.88
2019-06-08T14:42:34.982Z,770.63
2019-06-08T14:43:35.211Z,1681.88
2019-06-08T14:44:35.341Z,3915.00
2019-06-08T14:45:37.645Z,1046.25
2019-06-08T14:46:40.757Z,2109.38
2019-06-08T14:47:37.619Z,3690.00
2019-06-08T14:48:37.947Z,3656.25
2019-06-08T14:49:38.293Z,3661.88
2019-06-08T14:50:40.414Z,3628.13
2019-06-08T14:51:38.525Z,3571.88
2019-06-08T14:52:38.126Z,635.63
2019-06-08T14:53:38.691Z,770.63
2019-06-08T14:54:38.589Z,759.38
2019-06-08T14:55:38.704Z,956.25
2019-06-08T14:56:37.600Z,1080.00
2019-06-08T14:57:40.264Z,1102.50
2019-06-08T14:58:38.598Z,748.13
2019-06-08T14:59:38.011Z,613.13
2019-06-08T15:00:38.435Z,630.00
2019-06-08T15:01:38.370Z,843.75
2019-06-08T15:02:38.547Z,720.00
2019-06-08T15:03:38.731Z,736.88
2019-06-08T15:04:40.020Z,3240.00
2019-06-08T15:05:39.083Z,3262.50
2019-06-08T15:06:39.260Z,2981.25
2019-06-08T15:07:39.437Z,2778.75
2019-06-08T15:08:39.615Z,579.38
2019-06-08T15:09:39.792Z,871.88
2019-06-08T15:10:39.972Z,421.88
2019-06-08T15:11:40.145Z,382.50
2019-06-08T15:12:40.323Z,405.00
2019-06-08T15:13:40.674Z,472.50
2019-06-08T15:14:40.684Z,3127.50
2019-06-08T15:15:40.860Z,3133.13
2019-06-08T15:16:41.817Z,3161.25
2019-06-08T15:17:41.214Z,1884.38
2019-06-08T15:18:41.389Z,2115.00
2019-06-08T15:19:41.569Z,652.50
2019-06-08T15:20:41.754Z,3026.25
2019-06-08T15:21:41.935Z,3009.38
2019-06-08T15:22:42.112Z,2925.00
2019-06-08T15:23:42.285Z,2930.63
2019-06-08T15:24:42.462Z,2947.50
2019-06-08T15:25:42.638Z,2970.00
2019-06-08T15:26:45.475Z,3065.63
2019-06-08T15:27:42.998Z,601.88
2019-06-08T15:28:43.175Z,2953.13
2019-06-08T15:29:43.349Z,697.50
2019-06-08T15:30:43.536Z,748.13
2019-06-08T15:31:43.718Z,545.63
2019-06-08T15:32:43.892Z,714.38
2019-06-08T15:33:44.067Z,2880.00
2019-06-08T15:34:44.263Z,703.13
2019-06-08T15:35:44.439Z,489.38
2019-06-08T15:36:44.614Z,1788.75
2019-06-08T15:37:44.791Z,2812.50
2019-06-08T15:38:44.974Z,669.38
2019-06-08T15:39:45.159Z,601.88
2019-06-08T15:40:47.662Z,2806.88
2019-06-08T15:41:45.508Z,2711.25
2019-06-08T15:42:47.835Z,950.63
2019-06-08T15:43:47.954Z,2030.63
2019-06-08T15:44:47.972Z,2379.38
2019-06-08T15:45:48.604Z,2401.88
2019-06-08T15:46:47.644Z,2581.88
2019-06-08T15:47:48.547Z,2520.00
2019-06-08T15:48:48.588Z,1203.75
2019-06-08T15:49:50.178Z,2570.63
2019-06-08T15:50:49.320Z,2604.38
2019-06-08T15:51:48.117Z,2621.25
2019-06-08T15:52:48.236Z,1479.38
2019-06-08T15:53:47.854Z,2441.25
2019-06-08T15:54:48.401Z,506.25
2019-06-08T15:55:51.261Z,2283.75
2019-06-08T15:56:51.949Z,2210.63
2019-06-08T15:57:48.348Z,2013.75
2019-06-08T15:58:48.753Z,2205.00
2019-06-08T15:59:49.355Z,2199.38
2019-06-08T16:00:48.879Z,2188.13
2019-06-08T16:01:49.057Z,2188.13
2019-06-08T16:02:49.267Z,2182.50
2019-06-08T16:03:49.464Z,2188.13
2019-06-08T16:04:49.625Z,2160.00
2019-06-08T16:05:49.801Z,2120.63
2019-06-08T16:06:49.986Z,2070.00
2019-06-08T16:07:50.156Z,2036.25
2019-06-08T16:08:50.334Z,1991.25
2019-06-08T16:09:50.510Z,1985.63
2019-06-08T16:10:50.689Z,1991.25
2019-06-08T16:11:50.873Z,1996.88
2019-06-08T16:12:51.050Z,2013.75
2019-06-08T16:13:51.229Z,1991.25
2019-06-08T16:14:51.405Z,1575.00
2019-06-08T16:15:51.582Z,2098.13
2019-06-08T16:16:51.791Z,1597.50
2019-06-08T16:17:51.966Z,2002.50
2019-06-08T16:18:52.145Z,1957.50
2019-06-08T16:19:53.184Z,1935.00
2019-06-08T16:20:52.500Z,1906.88
2019-06-08T16:21:52.685Z,1884.38
2019-06-08T16:22:52.864Z,1861.88
2019-06-08T16:23:53.038Z,1816.88
2019-06-08T16:24:53.216Z,1811.25
2019-06-08T16:25:53.390Z,1777.50
2019-06-08T16:26:53.798Z,1783.13
2019-06-08T16:27:53.735Z,1743.75
2019-06-08T16:28:53.966Z,1715.63
2019-06-08T16:29:54.087Z,1271.25
2019-06-08T16:30:54.262Z,1659.38
2019-06-08T16:31:54.440Z,590.63
2019-06-08T16:32:54.622Z,1676.25
2019-06-08T16:33:54.800Z,1631.25
2019-06-08T16:34:54.971Z,1625.63
2019-06-08T16:35:55.148Z,1563.75
2019-06-08T16:36:55.333Z,1479.38
2019-06-08T16:37:55.500Z,1423.13
2019-06-08T16:38:55.965Z,1321.88
2019-06-08T16:39:55.857Z,1462.50
2019-06-08T16:40:56.038Z,1406.25
2019-06-08T16:41:56.219Z,1423.13
2019-06-08T16:42:56.393Z,1293.75
2019-06-08T16:43:56.571Z,1153.13
2019-06-08T16:44:56.749Z,1068.75
2019-06-08T16:45:56.925Z,905.63
2019-06-08T16:46:57.129Z,556.88
2019-06-08T16:47:57.306Z,455.63
2019-06-08T16:48:57.484Z,382.50
2019-06-08T16:49:57.660Z,343.13
2019-06-08T16:50:57.837Z,371.25
2019-06-08T16:51:58.020Z,365.63
2019-06-08T16:52:58.197Z,365.63
2019-06-08T16:53:58.373Z,365.63
2019-06-08T16:54:58.550Z,360.00
2019-06-08T16:55:58.727Z,360.00
2019-06-08T16:57:09.462Z,365.63
2019-06-08T16:57:59.079Z,348.75
2019-06-08T16:58:59.254Z,382.50
2019-06-08T16:59:59.431Z,382.50
2019-06-08T17:00:59.606Z,382.50
2019-06-08T17:01:59.790Z,376.88
2019-06-08T17:02:59.965Z,405.00
2019-06-08T17:04:00.143Z,416.25
2019-06-08T17:05:00.316Z,416.25
2019-06-08T17:06:00.501Z,416.25
2019-06-08T17:07:00.676Z,405.00
2019-06-08T17:08:00.854Z,399.38
2019-06-08T17:09:01.034Z,371.25
2019-06-08T17:10:01.204Z,337.50
2019-06-08T17:11:01.387Z,303.75
2019-06-08T17:12:01.739Z,303.75
2019-06-08T17:13:01.727Z,303.75
2019-06-08T17:14:01.908Z,309.38
2019-06-08T17:15:02.121Z,292.50
2019-06-08T17:16:02.252Z,298.13
2019-06-08T17:17:02.447Z,275.63
2019-06-08T17:18:02.849Z,326.25
2019-06-08T17:19:02.800Z,309.38
2019-06-08T17:20:04.911Z,298.13
2019-06-08T17:21:03.179Z,286.88
2019-06-08T17:22:03.332Z,281.25
2019-06-08T17:23:03.524Z,247.50
2019-06-08T17:24:03.700Z,247.50
2019-06-08T17:25:03.873Z,253.13
2019-06-08T17:26:04.047Z,253.13
2019-06-08T17:27:04.223Z,258.75
2019-06-08T17:28:04.422Z,241.88
2019-06-08T17:29:04.571Z,236.25
2019-06-08T17:30:08.564Z,236.25
2019-06-08T17:31:04.928Z,230.63
2019-06-08T17:32:05.099Z,236.25
2019-06-08T17:33:05.276Z,236.25
2019-06-08T17:34:05.452Z,230.63
2019-06-08T17:35:05.632Z,230.63
2019-06-08T17:36:05.812Z,230.63
2019-06-08T17:37:05.987Z,219.38
2019-06-08T17:38:06.165Z,213.75
2019-06-08T17:39:06.339Z,213.75
2019-06-08T17:40:06.513Z,208.13
2019-06-08T17:41:06.696Z,208.13
2019-06-08T17:42:06.865Z,208.13
2019-06-08T17:43:07.337Z,208.13
2019-06-08T17:44:07.217Z,196.88
2019-06-08T17:45:07.393Z,196.88
2019-06-08T17:46:07.568Z,191.25
2019-06-08T17:47:07.744Z,191.25
2019-06-08T17:48:07.920Z,196.88
2019-06-08T17:49:08.095Z,191.25
2019-06-08T17:50:08.289Z,185.63
2019-06-08T17:51:08.713Z,185.63
2019-06-08T17:52:08.641Z,185.63
2019-06-08T17:53:08.824Z,180.00
2019-06-08T17:54:08.995Z,180.00
2019-06-08T17:55:09.172Z,180.00
2019-06-08T17:56:09.356Z,180.00
2019-06-08T17:57:09.805Z,174.38
2019-06-08T17:58:09.699Z,174.38
2019-06-08T17:59:09.872Z,174.38
2019-06-08T18:00:11.250Z,174.38
2019-06-08T18:01:10.250Z,168.75
2019-06-08T18:02:14.324Z,168.75
2019-06-08T18:03:10.608Z,168.75
2019-06-08T18:04:10.838Z,168.75
2019-06-08T18:05:10.978Z,168.75
2019-06-08T18:06:11.173Z,168.75
2019-06-08T18:07:11.366Z,163.13
2019-06-08T18:08:11.518Z,163.13
2019-06-08T18:09:11.691Z,163.13
2019-06-08T18:10:11.889Z,157.50
2019-06-08T18:11:12.066Z,157.50
2019-06-08T18:12:12.250Z,151.88
2019-06-08T18:13:12.416Z,151.88
2019-06-08T18:14:12.602Z,151.88
2019-06-08T18:15:12.780Z,146.25
2019-06-08T18:16:12.953Z,146.25
2019-06-08T18:17:13.135Z,146.25
2019-06-08T18:18:13.316Z,140.63
2019-06-08T18:19:13.488Z,140.63
2019-06-08T18:20:13.665Z,140.63
2019-06-08T18:21:13.842Z,135.00
2019-06-08T18:22:15.625Z,135.00
2019-06-08T18:23:14.193Z,135.00
2019-06-08T18:24:14.373Z,129.38
2019-06-08T18:25:14.545Z,129.38
2019-06-08T18:26:17.111Z,129.38
2019-06-08T18:27:17.855Z,123.75
2019-06-08T18:28:17.068Z,123.75
2019-06-08T18:29:15.250Z,123.75
2019-06-08T18:30:15.426Z,118.13
2019-06-08T18:31:17.981Z,118.13
2019-06-08T18:32:17.981Z,112.50
2019-06-08T18:33:18.042Z,112.50
2019-06-08T18:34:17.824Z,112.50
2019-06-08T18:35:18.257Z,106.88
2019-06-08T18:36:17.406Z,106.88
2019-06-08T18:37:18.015Z,106.88
2019-06-08T18:38:17.915Z,101.25
2019-06-08T18:39:18.361Z,101.25
2019-06-08T18:40:17.893Z,101.25
2019-06-08T18:41:17.743Z,95.63
2019-06-08T18:42:17.990Z,95.63
2019-06-08T18:43:17.758Z,95.63
2019-06-08T18:44:17.933Z,95.63
2019-06-08T18:45:18.335Z,95.63
2019-06-08T18:46:18.299Z,90.00
2019-06-08T18:47:18.467Z,90.00
2019-06-08T18:48:18.642Z,90.00
2019-06-08T18:49:18.819Z,84.38
2019-06-08T18:50:18.996Z,84.38
2019-06-08T18:51:19.179Z,78.75
2019-06-08T18:52:19.348Z,78.75
2019-06-08T18:53:19.538Z,73.13
2019-06-08T18:54:19.701Z,73.13
2019-06-08T18:55:19.874Z,73.13
2019-06-08T18:56:20.051Z,67.50
2019-06-08T18:57:20.227Z,67.50
2019-06-08T18:58:24.675Z,61.88
2019-06-08T18:59:20.574Z,61.88
2019-06-08T19:00:20.749Z,56.25
2019-06-08T19:01:22.999Z,56.25
2019-06-08T19:02:21.097Z,50.63
2019-06-08T19:03:21.310Z,50.63
2019-06-08T19:04:21.476Z,45.00
2019-06-08T19:05:21.655Z,45.00
2019-06-08T19:06:21.845Z,45.00
2019-06-08T19:07:22.022Z,39.38
2019-06-08T19:08:22.192Z,39.38
2019-06-08T19:09:22.367Z,39.38
2019-06-08T19:10:22.541Z,33.75
2019-06-08T19:11:22.715Z,33.75
2019-06-08T19:12:22.890Z,33.75
2019-06-08T19:13:23.070Z,33.75
2019-06-08T19:14:23.270Z,28.13
2019-06-08T19:15:23.425Z,28.13
2019-06-08T19:16:23.598Z,28.13
2019-06-08T19:17:23.815Z,28.13
2019-06-08T19:18:23.947Z,22.50
2019-06-08T19:19:24.124Z,22.50
2019-06-08T19:20:24.298Z,22.50
2019-06-08T19:21:24.472Z,22.50
2019-06-08T19:22:24.647Z,22.50
2019-06-08T19:23:24.829Z,16.88
2019-06-08T19:24:25.002Z,16.88
2019-06-08T19:25:27.171Z,16.88
2019-06-08T19:26:25.352Z,16.88
2019-06-08T19:27:27.576Z,16.88
2019-06-08T19:28:35.691Z,11.25
2019-06-08T19:29:27.925Z,11.25
2019-06-08T19:30:28.217Z,11.25
2019-06-08T19:31:27.626Z,11.25
2019-06-08T19:32:28.026Z,11.25
2019-06-08T19:33:28.009Z,11.25
2019-06-08T19:34:29.038Z,5.63
2019-06-08T19:35:27.479Z,5.63
2019-06-08T19:36:28.026Z,5.63
2019-06-08T19:37:28.680Z,5.63
2019-06-08T19:38:28.454Z,5.63
2019-06-08T19:39:28.292Z,5.63
2019-06-08T19:40:27.790Z,5.63
2019-06-08T19:41:28.391Z,5.63
2019-06-08T19:42:40.021Z,0.00
2019-06-08T19:43:28.349Z,0.00
2019-06-08T19:44:28.773Z,0.00
2019-06-08T19:45:28.695Z,0.00
2019-06-08T19:46:28.867Z,0.00
2019-06-08T19:47:29.041Z,0.00
2019-06-08T19:48:31.279Z,0.00
2019-06-08T19:49:29.393Z,0.00
2019-06-08T19:50:29.569Z,0.00
2019-06-08T19:51:29.737Z,0.00
2019-06-08T19:52:29.913Z,0.00
2019-06-08T19:53:30.092Z,0.00
2019-06-08T19:54:30.266Z,0.00
2019-06-08T19:55:30.440Z,0.00
2019-06-08T19:56:30.622Z,0.00
2019-06-08T19:57:30.792Z,0.00
2019-06-08T19:58:30.967Z,0.00
2019-06-08T19:59:31.143Z,0.00
2019-06-08T20:00:31.335Z,0.00
2019-06-08T20:01:31.490Z,0.00
2019-06-08T20:02:31.667Z,0.00